sensor_id;sensor_type;location;lat;lon;timestamp;pressure;altitude;pressure_sealevel;temperature;humidity
58975;BME280;44751;52.236;5.178;2023-06-14T00:00:59;101473.53;;;20.29;81.46
58975;BME280;44751;52.236;5.178;2023-06-14T00:03:28;101479.78;;;20.17;82.14
58975;BME280;44751;52.236;5.178;2023-06-14T00:05:54;101483.81;;;20.15;81.68
58975;BME280;44751;52.236;5.178;2023-06-14T00:08:21;101477.81;;;20.06;82.21
58975;BME280;44751;52.236;5.178;2023-06-14T00:10:49;101474.69;;;20.02;82.08
58975;BME280;44751;52.236;5.178;2023-06-14T00:13:16;101485.34;;;20.10;81.54
58975;BME280;44751;52.236;5.178;2023-06-14T00:15:42;101476.53;;;20.08;80.85
58975;BME280;44751;52.236;5.178;2023-06-14T00:18:09;101481.22;;;20.01;80.78
58975;BME280;44751;52.236;5.178;2023-06-14T00:20:37;101480.50;;;19.87;81.50
58975;BME280;44751;52.236;5.178;2023-06-14T00:23:04;101482.19;;;19.88;81.16
58975;BME280;44751;52.236;5.178;2023-06-14T00:25:30;101486.56;;;19.89;81.07
58975;BME280;44751;52.236;5.178;2023-06-14T00:27:57;101478.13;;;19.91;80.91
58975;BME280;44751;52.236;5.178;2023-06-14T00:30:25;101485.13;;;19.86;80.71
58975;BME280;44751;52.236;5.178;2023-06-14T00:32:55;101486.44;;;19.84;80.27
58975;BME280;44751;52.236;5.178;2023-06-14T00:35:21;101481.19;;;19.82;80.11
58975;BME280;44751;52.236;5.178;2023-06-14T00:37:48;101475.63;;;19.89;79.57
58975;BME280;44751;52.236;5.178;2023-06-14T00:40:14;101477.63;;;19.82;79.99
58975;BME280;44751;52.236;5.178;2023-06-14T00:42:41;101478.13;;;19.72;79.97
58975;BME280;44751;52.236;5.178;2023-06-14T00:45:08;101485.72;;;19.70;79.38
58975;BME280;44751;52.236;5.178;2023-06-14T00:47:36;101475.22;;;19.67;79.79
58975;BME280;44751;52.236;5.178;2023-06-14T00:50:06;101484.06;;;19.69;78.78
58975;BME280;44751;52.236;5.178;2023-06-14T00:52:33;101479.69;;;19.61;79.01
58975;BME280;44751;52.236;5.178;2023-06-14T00:55:00;101472.31;;;19.61;78.44
58975;BME280;44751;52.236;5.178;2023-06-14T00:57:27;101477.81;;;19.61;78.55
58975;BME280;44751;52.236;5.178;2023-06-14T00:59:54;101482.13;;;19.51;78.29
58975;BME280;44751;52.236;5.178;2023-06-14T01:02:21;101475.25;;;19.41;78.70
58975;BME280;44751;52.236;5.178;2023-06-14T01:04:49;101478.94;;;19.54;78.19
58975;BME280;44751;52.236;5.178;2023-06-14T01:15:37;101480.75;;;19.34;77.48
58975;BME280;44751;52.236;5.178;2023-06-14T01:18:05;101482.00;;;19.39;76.54
58975;BME280;44751;52.236;5.178;2023-06-14T01:20:33;101474.69;;;19.32;77.18
58975;BME280;44751;52.236;5.178;2023-06-14T01:23:02;101477.66;;;19.31;76.26
58975;BME280;44751;52.236;5.178;2023-06-14T01:25:29;101472.66;;;19.21;76.78
58975;BME280;44751;52.236;5.178;2023-06-14T01:28:05;101481.88;;;19.27;76.11
58975;BME280;44751;52.236;5.178;2023-06-14T01:30:36;101474.91;;;19.31;75.73
58975;BME280;44751;52.236;5.178;2023-06-14T01:33:04;101474.13;;;19.23;75.44
58975;BME280;44751;52.236;5.178;2023-06-14T01:35:31;101471.22;;;19.18;75.23
58975;BME280;44751;52.236;5.178;2023-06-14T01:37:58;101468.56;;;19.05;75.18
58975;BME280;44751;52.236;5.178;2023-06-14T01:40:26;101473.16;;;19.11;75.21
58975;BME280;44751;52.236;5.178;2023-06-14T01:42:53;101477.25;;;18.95;75.45
58975;BME280;44751;52.236;5.178;2023-06-14T01:45:20;101475.97;;;18.97;74.80
58975;BME280;44751;52.236;5.178;2023-06-14T01:47:48;101475.59;;;18.87;75.99
58975;BME280;44751;52.236;5.178;2023-06-14T01:50:15;101481.69;;;18.89;75.44
58975;BME280;44751;52.236;5.178;2023-06-14T01:52:41;101478.16;;;18.82;76.13
58975;BME280;44751;52.236;5.178;2023-06-14T01:55:08;101474.38;;;18.83;75.51
58975;BME280;44751;52.236;5.178;2023-06-14T01:57:34;101476.94;;;18.78;75.76
58975;BME280;44751;52.236;5.178;2023-06-14T02:00:01;101475.13;;;18.97;74.61
58975;BME280;44751;52.236;5.178;2023-06-14T02:02:29;101481.88;;;18.94;74.76
58975;BME280;44751;52.236;5.178;2023-06-14T02:04:55;101472.69;;;18.82;74.35
58975;BME280;44751;52.236;5.178;2023-06-14T02:07:23;101473.94;;;18.86;74.94
58975;BME280;44751;52.236;5.178;2023-06-14T02:09:50;101474.84;;;18.73;75.13
58975;BME280;44751;52.236;5.178;2023-06-14T02:12:16;101466.44;;;18.75;74.51
58975;BME280;44751;52.236;5.178;2023-06-14T02:14:43;101474.28;;;18.64;75.30
58975;BME280;44751;52.236;5.178;2023-06-14T02:17:09;101469.25;;;18.61;75.69
58975;BME280;44751;52.236;5.178;2023-06-14T02:19:36;101469.41;;;18.66;75.14
58975;BME280;44751;52.236;5.178;2023-06-14T02:22:04;101471.38;;;18.52;76.14
58975;BME280;44751;52.236;5.178;2023-06-14T02:24:30;101463.81;;;18.54;75.77
58975;BME280;44751;52.236;5.178;2023-06-14T02:26:56;101467.78;;;18.58;75.49
58975;BME280;44751;52.236;5.178;2023-06-14T02:29:23;101469.50;;;18.46;76.47
58975;BME280;44751;52.236;5.178;2023-06-14T02:31:49;101466.84;;;18.32;77.10
58975;BME280;44751;52.236;5.178;2023-06-14T02:34:16;101468.69;;;18.45;76.84
58975;BME280;44751;52.236;5.178;2023-06-14T02:36:43;101471.44;;;18.39;77.29
58975;BME280;44751;52.236;5.178;2023-06-14T02:39:09;101466.00;;;18.32;77.84
58975;BME280;44751;52.236;5.178;2023-06-14T02:41:36;101473.19;;;18.19;78.38
58975;BME280;44751;52.236;5.178;2023-06-14T02:44:02;101473.41;;;18.18;78.75
58975;BME280;44751;52.236;5.178;2023-06-14T02:46:29;101474.66;;;18.15;78.88
58975;BME280;44751;52.236;5.178;2023-06-14T02:48:55;101476.13;;;18.25;78.39
58975;BME280;44751;52.236;5.178;2023-06-14T02:51:22;101476.53;;;18.22;79.05
58975;BME280;44751;52.236;5.178;2023-06-14T02:53:48;101486.03;;;18.12;79.66
58975;BME280;44751;52.236;5.178;2023-06-14T02:56:15;101475.50;;;18.16;79.12
58975;BME280;44751;52.236;5.178;2023-06-14T02:58:42;101478.88;;;18.18;79.52
58975;BME280;44751;52.236;5.178;2023-06-14T03:01:09;101476.16;;;18.11;79.41
58975;BME280;44751;52.236;5.178;2023-06-14T03:03:38;101481.81;;;18.10;79.93
58975;BME280;44751;52.236;5.178;2023-06-14T03:06:04;101481.63;;;17.91;81.21
58975;BME280;44751;52.236;5.178;2023-06-14T03:08:31;101481.00;;;17.82;82.09
58975;BME280;44751;52.236;5.178;2023-06-14T03:11:03;101486.06;;;17.85;82.16
58975;BME280;44751;52.236;5.178;2023-06-14T03:13:30;101493.81;;;17.95;82.42
58975;BME280;44751;52.236;5.178;2023-06-14T03:15:57;101498.22;;;17.89;82.94
58975;BME280;44751;52.236;5.178;2023-06-14T03:18:24;101489.63;;;17.92;82.71
58975;BME280;44751;52.236;5.178;2023-06-14T03:20:52;101491.91;;;17.89;82.73
58975;BME280;44751;52.236;5.178;2023-06-14T03:23:19;101495.31;;;17.84;nan
58975;BME280;44751;52.236;5.178;2023-06-14T03:25:46;101502.47;;;17.72;84.10
58975;BME280;44751;52.236;5.178;2023-06-14T03:28:12;101501.19;;;17.61;84.61
58975;BME280;44751;52.236;5.178;2023-06-14T03:30:39;101495.09;;;17.72;83.96
58975;BME280;44751;52.236;5.178;2023-06-14T03:33:06;101502.03;;;17.68;84.60
58975;BME280;44751;52.236;5.178;2023-06-14T03:35:32;101503.09;;;17.67;84.71
58975;BME280;44751;52.236;5.178;2023-06-14T03:37:58;101505.16;;;17.65;85.04
58975;BME280;44751;52.236;5.178;2023-06-14T03:40:25;101508.75;;;17.65;85.14
58975;BME280;44751;52.236;5.178;2023-06-14T03:42:53;101515.69;;;17.61;85.84
58975;BME280;44751;52.236;5.178;2023-06-14T03:45:19;101515.28;;;17.58;86.43
58975;BME280;44751;52.236;5.178;2023-06-14T03:47:46;101513.16;;;17.53;86.98
58975;BME280;44751;52.236;5.178;2023-06-14T03:50:13;101514.00;;;17.40;88.76
58975;BME280;44751;52.236;5.178;2023-06-14T03:52:40;101518.81;;;17.31;89.09
58975;BME280;44751;52.236;5.178;2023-06-14T03:55:08;101517.75;;;17.52;88.02
58975;BME280;44751;52.236;5.178;2023-06-14T03:57:35;101523.03;;;17.47;88.53
58975;BME280;44751;52.236;5.178;2023-06-14T04:00:01;101520.50;;;17.25;90.02
58975;BME280;44751;52.236;5.178;2023-06-14T04:02:31;101529.09;;;17.36;89.99
58975;BME280;44751;52.236;5.178;2023-06-14T04:04:57;101528.69;;;17.32;90.72
58975;BME280;44751;52.236;5.178;2023-06-14T04:07:24;101532.22;;;17.26;90.78
58975;BME280;44751;52.236;5.178;2023-06-14T04:09:54;101539.53;;;17.19;92.73
58975;BME280;44751;52.236;5.178;2023-06-14T04:12:20;101535.16;;;17.24;93.30
58975;BME280;44751;52.236;5.178;2023-06-14T04:14:47;101541.03;;;17.21;92.81
58975;BME280;44751;52.236;5.178;2023-06-14T04:17:13;101539.34;;;17.20;94.05
58975;BME280;44751;52.236;5.178;2023-06-14T04:19:40;101552.97;;;17.27;93.50
58975;BME280;44751;52.236;5.178;2023-06-14T04:22:06;101544.78;;;17.20;94.81
58975;BME280;44751;52.236;5.178;2023-06-14T04:24:33;101548.56;;;17.19;95.25
58975;BME280;44751;52.236;5.178;2023-06-14T04:27:00;101554.69;;;17.21;95.15
58975;BME280;44751;52.236;5.178;2023-06-14T04:29:27;101554.25;;;17.24;95.36
58975;BME280;44751;52.236;5.178;2023-06-14T04:31:55;101554.25;;;17.24;95.18
58975;BME280;44751;52.236;5.178;2023-06-14T04:34:28;101553.44;;;17.24;95.19
58975;BME280;44751;52.236;5.178;2023-06-14T04:36:58;101548.56;;;17.19;96.26
58975;BME280;44751;52.236;5.178;2023-06-14T04:39:26;101553.81;;;17.14;96.52
58975;BME280;44751;52.236;5.178;2023-06-14T04:41:53;101551.72;;;17.16;96.47
58975;BME280;44751;52.236;5.178;2023-06-14T04:44:23;101551.72;;;17.16;97.22
58975;BME280;44751;52.236;5.178;2023-06-14T04:46:55;101556.16;;;17.24;97.89
58975;BME280;44751;52.236;5.178;2023-06-14T04:49:21;101562.22;;;17.26;97.58
58975;BME280;44751;52.236;5.178;2023-06-14T04:51:48;101565.41;;;17.29;97.35
58975;BME280;44751;52.236;5.178;2023-06-14T04:54:16;101558.44;;;17.27;97.86
58975;BME280;44751;52.236;5.178;2023-06-14T04:56:44;101570.22;;;17.34;97.15
58975;BME280;44751;52.236;5.178;2023-06-14T04:59:11;101567.28;;;17.36;97.16
58975;BME280;44751;52.236;5.178;2023-06-14T05:01:40;101559.31;;;17.41;96.45
58975;BME280;44751;52.236;5.178;2023-06-14T05:04:06;101561.63;;;17.31;97.67
58975;BME280;44751;52.236;5.178;2023-06-14T05:06:33;101566.25;;;17.44;96.20
58975;BME280;44751;52.236;5.178;2023-06-14T05:08:59;101559.75;;;17.45;96.66
58975;BME280;44751;52.236;5.178;2023-06-14T05:11:25;101561.22;;;17.47;96.48
58975;BME280;44751;52.236;5.178;2023-06-14T05:13:52;101565.19;;;17.58;96.67
58975;BME280;44751;52.236;5.178;2023-06-14T05:16:18;101564.16;;;17.52;96.66
58975;BME280;44751;52.236;5.178;2023-06-14T05:18:45;101567.09;;;17.64;95.89
58975;BME280;44751;52.236;5.178;2023-06-14T05:21:12;101568.56;;;17.53;95.55
58975;BME280;44751;52.236;5.178;2023-06-14T05:23:42;101571.91;;;17.62;94.74
58975;BME280;44751;52.236;5.178;2023-06-14T05:26:09;101575.91;;;17.60;95.57
58975;BME280;44751;52.236;5.178;2023-06-14T05:28:36;101573.81;;;17.68;94.22
58975;BME280;44751;52.236;5.178;2023-06-14T05:31:02;101570.88;;;17.77;94.10
58975;BME280;44751;52.236;5.178;2023-06-14T05:33:29;101572.75;;;17.76;92.35
58975;BME280;44751;52.236;5.178;2023-06-14T05:35:55;101578.88;;;17.72;92.46
58975;BME280;44751;52.236;5.178;2023-06-14T05:38:22;101574.44;;;17.77;92.13
58975;BME280;44751;52.236;5.178;2023-06-14T05:40:48;101571.94;;;17.89;92.12
58975;BME280;44751;52.236;5.178;2023-06-14T05:43:14;101578.00;;;17.91;91.82
58975;BME280;44751;52.236;5.178;2023-06-14T05:45:41;101587.03;;;18.05;91.40
58975;BME280;44751;52.236;5.178;2023-06-14T05:48:07;101588.72;;;18.06;90.18
58975;BME280;44751;52.236;5.178;2023-06-14T05:50:34;101585.16;;;18.13;89.25
58975;BME280;44751;52.236;5.178;2023-06-14T05:53:00;101580.56;;;18.13;90.29
58975;BME280;44751;52.236;5.178;2023-06-14T05:55:26;101590.00;;;18.17;89.47
58975;BME280;44751;52.236;5.178;2023-06-14T05:57:53;101587.66;;;18.28;88.29
58975;BME280;44751;52.236;5.178;2023-06-14T06:00:19;101592.47;;;18.39;88.25
58975;BME280;44751;52.236;5.178;2023-06-14T06:02:46;101593.72;;;18.50;87.92
58975;BME280;44751;52.236;5.178;2023-06-14T06:05:13;101595.78;;;18.68;87.16
58975;BME280;44751;52.236;5.178;2023-06-14T06:07:40;101599.09;;;18.77;85.63
58975;BME280;44751;52.236;5.178;2023-06-14T06:10:07;101605.22;;;18.73;86.04
58975;BME280;44751;52.236;5.178;2023-06-14T06:12:33;101609.19;;;18.77;85.28
58975;BME280;44751;52.236;5.178;2023-06-14T06:15:00;101605.81;;;18.75;85.81
58975;BME280;44751;52.236;5.178;2023-06-14T06:17:26;101610.66;;;18.79;85.24
58975;BME280;44751;52.236;5.178;2023-06-14T06:19:54;101610.81;;;18.91;84.92
58975;BME280;44751;52.236;5.178;2023-06-14T06:22:23;101613.13;;;18.94;84.07
58975;BME280;44751;52.236;5.178;2023-06-14T06:24:51;101612.94;;;18.89;83.92
58975;BME280;44751;52.236;5.178;2023-06-14T06:27:18;101607.59;;;19.01;83.98
58975;BME280;44751;52.236;5.178;2023-06-14T06:29:45;101618.94;;;19.18;84.74
58975;BME280;44751;52.236;5.178;2023-06-14T06:32:13;101605.31;;;19.44;82.29
58975;BME280;44751;52.236;5.178;2023-06-14T06:34:40;101612.84;;;19.48;82.62
58975;BME280;44751;52.236;5.178;2023-06-14T06:37:06;101611.44;;;19.71;81.05
58975;BME280;44751;52.236;5.178;2023-06-14T06:39:36;101611.13;;;19.54;81.68
58975;BME280;44751;52.236;5.178;2023-06-14T06:42:02;101618.31;;;19.81;81.08
58975;BME280;44751;52.236;5.178;2023-06-14T06:44:29;101618.06;;;19.82;80.19
58975;BME280;44751;52.236;5.178;2023-06-14T06:46:55;101626.00;;;19.97;80.38
58975;BME280;44751;52.236;5.178;2023-06-14T06:49:21;101628.06;;;20.28;79.48
58975;BME280;44751;52.236;5.178;2023-06-14T06:52:00;101629.75;;;20.47;78.50
58975;BME280;44751;52.236;5.178;2023-06-14T06:54:27;101634.16;;;20.48;78.01
58975;BME280;44751;52.236;5.178;2023-06-14T06:56:54;101629.06;;;20.33;77.48
58975;BME280;44751;52.236;5.178;2023-06-14T06:59:21;101632.56;;;20.78;77.86
58975;BME280;44751;52.236;5.178;2023-06-14T07:01:47;101636.06;;;21.04;75.31
58975;BME280;44751;52.236;5.178;2023-06-14T07:04:14;101634.63;;;21.01;74.37
58975;BME280;44751;52.236;5.178;2023-06-14T07:06:42;101647.50;;;21.20;74.04
58975;BME280;44751;52.236;5.178;2023-06-14T07:09:09;101642.38;;;21.23;73.37
58975;BME280;44751;52.236;5.178;2023-06-14T07:11:38;101645.63;;;21.32;72.94
58975;BME280;44751;52.236;5.178;2023-06-14T07:14:05;101651.59;;;21.29;71.51
58975;BME280;44751;52.236;5.178;2023-06-14T07:16:32;101646.38;;;21.39;71.40
58975;BME280;44751;52.236;5.178;2023-06-14T07:18:58;101650.97;;;21.88;71.47
58975;BME280;44751;52.236;5.178;2023-06-14T07:21:25;101653.97;;;21.99;70.42
58975;BME280;44751;52.236;5.178;2023-06-14T07:23:55;101655.41;;;21.89;69.67
58975;BME280;44751;52.236;5.178;2023-06-14T07:26:22;101652.41;;;22.03;68.62
58975;BME280;44751;52.236;5.178;2023-06-14T07:28:48;101660.78;;;22.08;69.09
58975;BME280;44751;52.236;5.178;2023-06-14T07:31:15;101666.28;;;21.96;69.01
58975;BME280;44751;52.236;5.178;2023-06-14T07:33:44;101657.69;;;22.40;68.05
58975;BME280;44751;52.236;5.178;2023-06-14T07:36:10;101663.34;;;22.57;67.90
58975;BME280;44751;52.236;5.178;2023-06-14T07:38:37;101672.75;;;22.74;66.72
58975;BME280;44751;52.236;5.178;2023-06-14T07:41:05;101665.44;;;22.79;67.06
58975;BME280;44751;52.236;5.178;2023-06-14T07:43:31;101665.47;;;22.67;65.49
58975;BME280;44751;52.236;5.178;2023-06-14T07:45:58;101669.50;;;22.77;64.92
58975;BME280;44751;52.236;5.178;2023-06-14T07:48:25;101665.38;;;23.03;62.94
58975;BME280;44751;52.236;5.178;2023-06-14T07:50:51;101667.97;;;23.22;63.94
58975;BME280;44751;52.236;5.178;2023-06-14T07:53:17;101672.22;;;23.42;63.08
58975;BME280;44751;52.236;5.178;2023-06-14T07:55:44;101677.59;;;23.49;60.39
58975;BME280;44751;52.236;5.178;2023-06-14T07:58:12;101670.69;;;23.63;61.06
58975;BME280;44751;52.236;5.178;2023-06-14T08:00:38;101682.03;;;23.67;60.23
58975;BME280;44751;52.236;5.178;2023-06-14T08:03:05;101685.41;;;23.86;58.31
58975;BME280;44751;52.236;5.178;2023-06-14T08:05:31;101694.84;;;23.90;56.74
58975;BME280;44751;52.236;5.178;2023-06-14T08:07:57;101700.28;;;24.02;58.02
58975;BME280;44751;52.236;5.178;2023-06-14T08:10:24;101697.84;;;23.89;56.35
58975;BME280;44751;52.236;5.178;2023-06-14T08:12:51;101689.06;;;23.75;57.18
58975;BME280;44751;52.236;5.178;2023-06-14T08:15:18;101685.03;;;24.11;56.50
58975;BME280;44751;52.236;5.178;2023-06-14T08:17:45;101697.47;;;24.31;56.12
58975;BME280;44751;52.236;5.178;2023-06-14T08:20:12;101687.00;;;24.50;55.39
58975;BME280;44751;52.236;5.178;2023-06-14T08:22:39;101686.97;;;24.68;56.14
58975;BME280;44751;52.236;5.178;2023-06-14T08:25:07;101679.59;;;24.73;54.30
58975;BME280;44751;52.236;5.178;2023-06-14T08:27:35;101691.81;;;25.22;54.10
58975;BME280;44751;52.236;5.178;2023-06-14T08:30:01;101697.09;;;25.24;52.35
58975;BME280;44751;52.236;5.178;2023-06-14T08:32:28;101690.91;;;25.17;51.42
58975;BME280;44751;52.236;5.178;2023-06-14T08:34:55;101687.66;;;25.47;50.57
58975;BME280;44751;52.236;5.178;2023-06-14T08:37:21;101687.00;;;25.90;49.88
58975;BME280;44751;52.236;5.178;2023-06-14T08:39:48;101689.53;;;25.97;49.99
58975;BME280;44751;52.236;5.178;2023-06-14T08:42:15;101684.53;;;25.94;48.96
58975;BME280;44751;52.236;5.178;2023-06-14T08:44:41;101681.03;;;26.41;50.30
58975;BME280;44751;52.236;5.178;2023-06-14T08:47:08;101678.03;;;26.48;47.35
58975;BME280;44751;52.236;5.178;2023-06-14T08:49:37;101682.34;;;26.28;46.56
58975;BME280;44751;52.236;5.178;2023-06-14T08:52:05;101685.31;;;26.60;46.72
58975;BME280;44751;52.236;5.178;2023-06-14T08:54:35;101693.75;;;26.86;45.60
58975;BME280;44751;52.236;5.178;2023-06-14T08:57:11;101690.19;;;26.96;44.70
58975;BME280;44751;52.236;5.178;2023-06-14T08:59:46;101682.63;;;26.75;44.79
58975;BME280;44751;52.236;5.178;2023-06-14T09:02:14;101684.16;;;26.55;43.95
58975;BME280;44751;52.236;5.178;2023-06-14T09:04:43;101694.19;;;26.62;43.50
58975;BME280;44751;52.236;5.178;2023-06-14T09:07:11;101698.66;;;27.32;44.57
58975;BME280;44751;52.236;5.178;2023-06-14T09:09:39;101690.88;;;27.34;44.24
58975;BME280;44751;52.236;5.178;2023-06-14T09:12:08;101694.34;;;27.93;43.61
58975;BME280;44751;52.236;5.178;2023-06-14T09:14:37;101698.47;;;28.12;41.80
58975;BME280;44751;52.236;5.178;2023-06-14T09:17:06;101701.22;;;28.22;41.53
58975;BME280;44751;52.236;5.178;2023-06-14T09:19:33;101700.94;;;28.55;40.86
58975;BME280;44751;52.236;5.178;2023-06-14T09:22:00;101707.03;;;28.57;39.83
58975;BME280;44751;52.236;5.178;2023-06-14T09:24:26;101695.72;;;27.80;39.62
58975;BME280;44751;52.236;5.178;2023-06-14T09:26:53;101697.91;;;27.68;40.55
58975;BME280;44751;52.236;5.178;2023-06-14T09:29:20;101706.78;;;28.43;40.12
58975;BME280;44751;52.236;5.178;2023-06-14T09:31:46;101704.28;;;28.36;39.60
58975;BME280;44751;52.236;5.178;2023-06-14T09:34:13;101705.78;;;29.05;39.82
58975;BME280;44751;52.236;5.178;2023-06-14T09:36:40;101713.88;;;29.51;38.08
58975;BME280;44751;52.236;5.178;2023-06-14T09:39:07;101706.88;;;29.09;38.78
58975;BME280;44751;52.236;5.178;2023-06-14T09:41:40;101715.28;;;28.98;37.53
58975;BME280;44751;52.236;5.178;2023-06-14T09:44:08;101709.03;;;29.22;38.27
58975;BME280;44751;52.236;5.178;2023-06-14T09:46:36;101719.81;;;29.34;37.14
58975;BME280;44751;52.236;5.178;2023-06-14T09:49:04;101708.22;;;29.22;36.93
58975;BME280;44751;52.236;5.178;2023-06-14T09:51:31;101701.91;;;29.06;37.56
58975;BME280;44751;52.236;5.178;2023-06-14T09:54:03;101710.22;;;29.11;36.66
58975;BME280;44751;52.236;5.178;2023-06-14T09:56:32;101698.03;;;29.52;37.90
58975;BME280;44751;52.236;5.178;2023-06-14T09:59:04;101704.84;;;30.10;36.77
58975;BME280;44751;52.236;5.178;2023-06-14T10:01:32;101714.56;;;30.43;35.34
58975;BME280;44751;52.236;5.178;2023-06-14T10:04:06;101710.16;;;30.36;34.62
58975;BME280;44751;52.236;5.178;2023-06-14T10:06:37;101701.28;;;30.34;34.59
58975;BME280;44751;52.236;5.178;2023-06-14T10:09:04;101708.06;;;30.52;34.00
58975;BME280;44751;52.236;5.178;2023-06-14T10:11:34;101707.97;;;30.03;34.06
58975;BME280;44751;52.236;5.178;2023-06-14T10:14:03;101702.47;;;30.28;34.33
58975;BME280;44751;52.236;5.178;2023-06-14T10:16:39;101708.44;;;30.16;33.18
58975;BME280;44751;52.236;5.178;2023-06-14T10:19:13;101704.03;;;30.05;33.99
58975;BME280;44751;52.236;5.178;2023-06-14T10:22:00;101703.81;;;29.66;33.70
58975;BME280;44751;52.236;5.178;2023-06-14T10:24:33;101697.91;;;30.08;34.10
58975;BME280;44751;52.236;5.178;2023-06-14T10:27:00;101704.09;;;29.99;34.07
58975;BME280;44751;52.236;5.178;2023-06-14T10:29:28;101701.06;;;30.55;33.98
58975;BME280;44751;52.236;5.178;2023-06-14T10:31:58;101693.59;;;30.26;33.64
58975;BME280;44751;52.236;5.178;2023-06-14T10:34:29;101692.94;;;30.34;33.69
58975;BME280;44751;52.236;5.178;2023-06-14T10:37:07;101697.78;;;30.23;32.58
58975;BME280;44751;52.236;5.178;2023-06-14T10:39:43;101703.19;;;30.04;31.45
58975;BME280;44751;52.236;5.178;2023-06-14T10:42:11;101707.84;;;29.84;31.99
58975;BME280;44751;52.236;5.178;2023-06-14T10:44:45;101714.44;;;29.48;31.86
58975;BME280;44751;52.236;5.178;2023-06-14T10:52:43;101701.06;;;29.05;33.54
58975;BME280;44751;52.236;5.178;2023-06-14T10:55:14;101701.59;;;29.07;34.53
58975;BME280;44751;52.236;5.178;2023-06-14T10:57:44;101702.88;;;29.76;34.92
58975;BME280;44751;52.236;5.178;2023-06-14T11:00:13;101702.13;;;29.70;34.42
58975;BME280;44751;52.236;5.178;2023-06-14T11:08:40;101692.78;;;28.79;34.55
58975;BME280;44751;52.236;5.178;2023-06-14T11:11:12;101696.00;;;28.31;35.16
58975;BME280;44751;52.236;5.178;2023-06-14T11:13:44;101690.63;;;28.66;35.91
58975;BME280;44751;52.236;5.178;2023-06-14T11:16:16;101697.44;;;29.05;35.10
58975;BME280;44751;52.236;5.178;2023-06-14T11:18:44;101696.75;;;29.34;36.98
58975;BME280;44751;52.236;5.178;2023-06-14T11:21:11;101687.53;;;29.38;35.26
58975;BME280;44751;52.236;5.178;2023-06-14T11:23:37;101692.94;;;29.70;36.26
58975;BME280;44751;52.236;5.178;2023-06-14T11:26:04;101686.53;;;30.34;34.77
58975;BME280;44751;52.236;5.178;2023-06-14T11:28:40;101685.88;;;29.37;35.56
58975;BME280;44751;52.236;5.178;2023-06-14T11:31:07;101692.19;;;29.94;35.18
58975;BME280;44751;52.236;5.178;2023-06-14T11:33:33;101685.66;;;29.34;35.36
58975;BME280;44751;52.236;5.178;2023-06-14T11:36:03;101683.63;;;29.39;36.22
58975;BME280;44751;52.236;5.178;2023-06-14T11:38:34;101689.28;;;29.29;35.19
58975;BME280;44751;52.236;5.178;2023-06-14T11:41:01;101674.09;;;29.11;35.40
58975;BME280;44751;52.236;5.178;2023-06-14T11:43:27;101680.56;;;28.91;35.47
58975;BME280;44751;52.236;5.178;2023-06-14T11:45:56;101669.78;;;28.73;36.31
58975;BME280;44751;52.236;5.178;2023-06-14T11:48:23;101679.75;;;28.80;36.01
58975;BME280;44751;52.236;5.178;2023-06-14T11:50:50;101679.69;;;29.00;36.25
58975;BME280;44751;52.236;5.178;2023-06-14T11:53:16;101684.78;;;28.78;35.92
58975;BME280;44751;52.236;5.178;2023-06-14T11:55:43;101677.94;;;29.20;36.45
58975;BME280;44751;52.236;5.178;2023-06-14T11:58:11;101690.44;;;29.18;36.25
58975;BME280;44751;52.236;5.178;2023-06-14T12:00:37;101688.78;;;29.17;35.67
58975;BME280;44751;52.236;5.178;2023-06-14T12:03:04;101676.97;;;28.80;35.34
58975;BME280;44751;52.236;5.178;2023-06-14T12:05:30;101693.06;;;28.88;36.64
58975;BME280;44751;52.236;5.178;2023-06-14T12:07:58;101685.88;;;28.77;36.56
58975;BME280;44751;52.236;5.178;2023-06-14T12:10:26;101681.69;;;28.84;36.23
58975;BME280;44751;52.236;5.178;2023-06-14T12:12:56;101684.38;;;29.10;35.61
58975;BME280;44751;52.236;5.178;2023-06-14T12:15:23;101679.50;;;28.71;35.70
58975;BME280;44751;52.236;5.178;2023-06-14T12:17:49;101674.91;;;29.17;36.54
58975;BME280;44751;52.236;5.178;2023-06-14T12:20:17;101677.06;;;29.25;35.04
58975;BME280;44751;52.236;5.178;2023-06-14T12:22:53;101684.53;;;28.58;35.79
58975;BME280;44751;52.236;5.178;2023-06-14T12:25:34;101683.22;;;29.17;35.39
58975;BME280;44751;52.236;5.178;2023-06-14T12:28:08;101678.50;;;29.17;35.59
58975;BME280;44751;52.236;5.178;2023-06-14T12:30:36;101676.19;;;29.35;36.11
58975;BME280;44751;52.236;5.178;2023-06-14T12:33:04;101683.53;;;29.15;36.38
58975;BME280;44751;52.236;5.178;2023-06-14T12:35:30;101678.41;;;29.33;36.06
58975;BME280;44751;52.236;5.178;2023-06-14T12:37:57;101681.47;;;29.31;35.47
58975;BME280;44751;52.236;5.178;2023-06-14T12:40:23;101680.72;;;28.33;36.74
58975;BME280;44751;52.236;5.178;2023-06-14T12:42:50;101666.31;;;29.08;36.67
58975;BME280;44751;52.236;5.178;2023-06-14T12:45:16;101679.50;;;29.37;34.42
58975;BME280;44751;52.236;5.178;2023-06-14T12:47:42;101673.88;;;28.86;34.58
58975;BME280;44751;52.236;5.178;2023-06-14T12:50:09;101675.56;;;28.82;34.10
58975;BME280;44751;52.236;5.178;2023-06-14T12:52:35;101669.81;;;28.63;33.65
58975;BME280;44751;52.236;5.178;2023-06-14T12:55:03;101687.56;;;28.78;33.34
58975;BME280;44751;52.236;5.178;2023-06-14T12:57:30;101677.97;;;29.15;33.16
58975;BME280;44751;52.236;5.178;2023-06-14T12:59:56;101678.03;;;28.99;32.63
58975;BME280;44751;52.236;5.178;2023-06-14T13:02:22;101675.19;;;29.15;33.86
58975;BME280;44751;52.236;5.178;2023-06-14T13:04:51;101673.72;;;29.23;34.07
58975;BME280;44751;52.236;5.178;2023-06-14T13:07:17;101678.59;;;28.96;33.83
58975;BME280;44751;52.236;5.178;2023-06-14T13:09:43;101673.47;;;28.43;35.08
58975;BME280;44751;52.236;5.178;2023-06-14T13:12:10;101687.78;;;28.86;35.39